Bda Blondet, Puerto Rico
Current Conditions -  °F | °C
As of 8:56 PM on Friday 19 Dec 2014 (Local Time) from TJSJ Reporting Station
Scattered Clouds Scattered Clouds  
Wind Chill: 26°   Ceiling: Unl
Heat Index: 27°   Visibility: 10mi
Dew Point: 22°   Wind: 8mph
Humidity: 79%   Direction: 70°ENE
Pressure: 30.01"   Gusts: NA
Location:  18.4067°N, 66.0993°W
Report Text: TJSJ 200056Z 07007KT 10SM FEW030 SCT080 26/22 A3001 RMK AO2 SLP160 T02560217
Loading
Personal Weather Stations






























Interactive Weather Map New forecast layout! Learn more

10-Day Weather Forecast

Advertisements
Track Severe Weather on mobile